Startpagina
METAR-TAF:

METAR-TAF

Vliegvelden :

Aeropuerto Internacional Mariscal Sucre

Quito, Ecuador

breedte: 0-06-48S, lengte: 78-21-31W, hoogte: 2400 m

Actueel weer

Dit bericht is 34 minuten geleden gemaakt, om 16:00 UTC
Wind 8 kt uit variabele richting met uitschieters tot 20 kt
Temperatuur 23°C
Vochtigheid 29%
Druk 1023 hPa
Zicht 10 km of meer
Weinig wolken op 3300 ft
Gebroken wolken op 9000 ft

METAR: SEQM 211600Z VRB08G20KT 9999 FEW033 BKN090 23/04 Q1023 NOSIG RMK A3022

Tijdstip: 11:34 (16:34 UTC)

Verwachting

Dit bericht is 7 uur en het 4 minuten geleden gemaakt, om 09:30 UTC
Verwachting geldig van 21 om 12 UTC tot 22 om 12 UTC
Wind 3 kt uit variabele richting
Zicht 10 km of meer
Weinig wolken op 3300 ft
Wijzigt naar
van 21 om 18 UTC tot 21 om 20 UTC
Wind 14 kt uit het noordnoordoosten
Wijzigt naar
van 21 om 22 UTC tot 21 om 24 UTC
Wind 3 kt uit variabele richting

TAF: SEQM 210930Z 2112/2212 VRB03KT 9999 FEW033 BECMG 2118/2120 02014KT BECMG 2122/2124 VRB03KT TX26/2119Z TN06/2211Z

Waarnemingen en weersverwachtingen van meer dan 4000 vliegvelden (METAR en TAF).

De beschikbare stations zijn de gele en rode punten op de kaart.

Ga met uw muis naar het station om de naam te zien.

Klik dan om waarnemingen en weersverwachtingen te zien.

kaart wijzigen: klik op de groene knoppen met een zwart kruis om in te zoomen, op de groene knop met een streepje om uit te zoomen of op de groene pijlen voor aangrenzende kaarten.


METAR-TAF: